sensor_id;sensor_type;location;lat;lon;timestamp;temperature;humidity
18779;DHT22;9518;51.720;14.384;2024-01-10T00:01:06;-11.80;99.90
18779;DHT22;9518;51.720;14.384;2024-01-10T00:03:33;-11.90;99.90
18779;DHT22;9518;51.720;14.384;2024-01-10T00:06:00;-11.90;99.90
18779;DHT22;9518;51.720;14.384;2024-01-10T00:08:28;-11.90;99.90
18779;DHT22;9518;51.720;14.384;2024-01-10T00:10:56;-11.90;99.90
18779;DHT22;9518;51.720;14.384;2024-01-10T00:13:23;-11.90;99.90
18779;DHT22;9518;51.720;14.384;2024-01-10T00:15:50;-11.90;99.90
18779;DHT22;9518;51.720;14.384;2024-01-10T00:18:17;-11.90;99.90
18779;DHT22;9518;51.720;14.384;2024-01-10T00:20:48;-11.90;99.90
18779;DHT22;9518;51.720;14.384;2024-01-10T00:23:15;-12.00;99.90
18779;DHT22;9518;51.720;14.384;2024-01-10T00:25:42;-12.00;99.90
18779;DHT22;9518;51.720;14.384;2024-01-10T00:28:11;-12.00;99.90
18779;DHT22;9518;51.720;14.384;2024-01-10T00:30:38;-12.00;99.90
18779;DHT22;9518;51.720;14.384;2024-01-10T00:33:05;-12.00;99.90
18779;DHT22;9518;51.720;14.384;2024-01-10T00:35:32;-12.10;99.90
18779;DHT22;9518;51.720;14.384;2024-01-10T00:37:59;-12.10;99.90
18779;DHT22;9518;51.720;14.384;2024-01-10T00:40:26;-12.20;99.90
18779;DHT22;9518;51.720;14.384;2024-01-10T00:42:53;-12.20;99.90
18779;DHT22;9518;51.720;14.384;2024-01-10T00:45:21;-12.20;99.90
18779;DHT22;9518;51.720;14.384;2024-01-10T00:47:48;-12.20;99.90
18779;DHT22;9518;51.720;14.384;2024-01-10T00:50:16;-12.20;99.90
18779;DHT22;9518;51.720;14.384;2024-01-10T00:52:43;-12.20;99.90
18779;DHT22;9518;51.720;14.384;2024-01-10T00:55:11;-12.30;99.90
18779;DHT22;9518;51.720;14.384;2024-01-10T00:57:40;-12.30;99.90
18779;DHT22;9518;51.720;14.384;2024-01-10T01:00:09;-12.20;99.90
18779;DHT22;9518;51.720;14.384;2024-01-10T01:02:37;-12.20;99.90
18779;DHT22;9518;51.720;14.384;2024-01-10T01:05:06;-12.30;99.90
18779;DHT22;9518;51.720;14.384;2024-01-10T01:07:33;-12.30;99.90
18779;DHT22;9518;51.720;14.384;2024-01-10T01:10:00;-12.40;99.90
18779;DHT22;9518;51.720;14.384;2024-01-10T01:12:27;-12.40;99.90
18779;DHT22;9518;51.720;14.384;2024-01-10T01:14:54;-12.30;99.90
18779;DHT22;9518;51.720;14.384;2024-01-10T01:17:21;-12.30;99.90
18779;DHT22;9518;51.720;14.384;2024-01-10T01:19:49;-12.20;99.90
18779;DHT22;9518;51.720;14.384;2024-01-10T01:22:16;-12.10;99.90
18779;DHT22;9518;51.720;14.384;2024-01-10T01:24:43;-12.00;99.90
18779;DHT22;9518;51.720;14.384;2024-01-10T01:27:10;-11.90;99.90
18779;DHT22;9518;51.720;14.384;2024-01-10T01:29:37;-11.90;99.90
18779;DHT22;9518;51.720;14.384;2024-01-10T01:32:05;-11.80;99.90
18779;DHT22;9518;51.720;14.384;2024-01-10T01:34:32;-11.80;99.90
18779;DHT22;9518;51.720;14.384;2024-01-10T01:37:00;-11.70;99.90
18779;DHT22;9518;51.720;14.384;2024-01-10T01:39:27;-11.60;99.90
18779;DHT22;9518;51.720;14.384;2024-01-10T01:41:54;-11.60;99.90
18779;DHT22;9518;51.720;14.384;2024-01-10T01:44:21;-11.60;99.90
18779;DHT22;9518;51.720;14.384;2024-01-10T01:46:48;-11.60;99.90
18779;DHT22;9518;51.720;14.384;2024-01-10T01:49:15;-11.60;99.90
18779;DHT22;9518;51.720;14.384;2024-01-10T01:51:42;-11.60;99.90
18779;DHT22;9518;51.720;14.384;2024-01-10T01:54:11;-11.60;99.90
18779;DHT22;9518;51.720;14.384;2024-01-10T01:56:40;-11.60;99.90
18779;DHT22;9518;51.720;14.384;2024-01-10T01:59:08;-11.60;99.90
18779;DHT22;9518;51.720;14.384;2024-01-10T02:01:35;-11.50;99.90
18779;DHT22;9518;51.720;14.384;2024-01-10T02:04:04;-11.40;99.90
18779;DHT22;9518;51.720;14.384;2024-01-10T02:06:32;-11.40;99.90
18779;DHT22;9518;51.720;14.384;2024-01-10T02:08:59;-11.40;99.90
18779;DHT22;9518;51.720;14.384;2024-01-10T02:11:27;-11.40;99.90
18779;DHT22;9518;51.720;14.384;2024-01-10T02:13:54;-11.40;99.90
18779;DHT22;9518;51.720;14.384;2024-01-10T02:16:21;-11.40;99.90
18779;DHT22;9518;51.720;14.384;2024-01-10T02:18:50;-11.50;99.90
18779;DHT22;9518;51.720;14.384;2024-01-10T02:21:20;-11.50;99.90
18779;DHT22;9518;51.720;14.384;2024-01-10T02:23:47;-11.50;99.90
18779;DHT22;9518;51.720;14.384;2024-01-10T02:26:15;-11.50;99.90
18779;DHT22;9518;51.720;14.384;2024-01-10T02:28:44;-11.50;99.90
18779;DHT22;9518;51.720;14.384;2024-01-10T02:31:11;-11.60;99.90
18779;DHT22;9518;51.720;14.384;2024-01-10T02:33:38;-11.70;99.90
18779;DHT22;9518;51.720;14.384;2024-01-10T02:36:05;-11.80;99.90
18779;DHT22;9518;51.720;14.384;2024-01-10T02:38:32;-11.80;99.90
18779;DHT22;9518;51.720;14.384;2024-01-10T02:40:59;-11.80;99.90
18779;DHT22;9518;51.720;14.384;2024-01-10T02:43:29;-11.80;99.90
18779;DHT22;9518;51.720;14.384;2024-01-10T02:45:56;-11.80;99.90
18779;DHT22;9518;51.720;14.384;2024-01-10T02:48:24;-11.90;99.90
18779;DHT22;9518;51.720;14.384;2024-01-10T02:50:51;-12.00;99.90
18779;DHT22;9518;51.720;14.384;2024-01-10T02:53:20;-12.10;99.90
18779;DHT22;9518;51.720;14.384;2024-01-10T02:55:46;-12.20;99.90
18779;DHT22;9518;51.720;14.384;2024-01-10T02:58:16;-12.30;99.90
18779;DHT22;9518;51.720;14.384;2024-01-10T03:00:48;-12.30;99.90
18779;DHT22;9518;51.720;14.384;2024-01-10T03:03:15;-12.40;99.90
18779;DHT22;9518;51.720;14.384;2024-01-10T03:05:42;-12.40;99.90
18779;DHT22;9518;51.720;14.384;2024-01-10T03:08:09;-12.50;99.90
18779;DHT22;9518;51.720;14.384;2024-01-10T03:10:36;-12.50;99.90
18779;DHT22;9518;51.720;14.384;2024-01-10T03:13:03;-12.60;99.90
18779;DHT22;9518;51.720;14.384;2024-01-10T03:15:30;-12.40;99.90
18779;DHT22;9518;51.720;14.384;2024-01-10T03:17:59;-12.40;99.90
18779;DHT22;9518;51.720;14.384;2024-01-10T03:20:26;-12.30;99.90
18779;DHT22;9518;51.720;14.384;2024-01-10T03:22:53;-12.20;99.90
18779;DHT22;9518;51.720;14.384;2024-01-10T03:25:19;-12.20;99.90
18779;DHT22;9518;51.720;14.384;2024-01-10T03:27:46;-12.30;99.90
18779;DHT22;9518;51.720;14.384;2024-01-10T03:30:13;-12.30;99.90
18779;DHT22;9518;51.720;14.384;2024-01-10T03:32:43;-12.30;99.90
18779;DHT22;9518;51.720;14.384;2024-01-10T03:35:14;-12.30;99.90
18779;DHT22;9518;51.720;14.384;2024-01-10T03:37:41;-12.30;99.90
18779;DHT22;9518;51.720;14.384;2024-01-10T03:40:08;-12.30;99.90
18779;DHT22;9518;51.720;14.384;2024-01-10T03:42:35;-12.30;99.90
18779;DHT22;9518;51.720;14.384;2024-01-10T03:45:03;-12.30;99.90
18779;DHT22;9518;51.720;14.384;2024-01-10T03:47:30;-12.30;99.90
18779;DHT22;9518;51.720;14.384;2024-01-10T03:49:57;-12.30;99.90
18779;DHT22;9518;51.720;14.384;2024-01-10T03:52:25;-12.40;99.90
18779;DHT22;9518;51.720;14.384;2024-01-10T03:54:52;-12.50;99.90
18779;DHT22;9518;51.720;14.384;2024-01-10T03:57:20;-12.50;99.90
18779;DHT22;9518;51.720;14.384;2024-01-10T03:59:47;-12.50;99.90
18779;DHT22;9518;51.720;14.384;2024-01-10T04:02:14;-12.50;99.90
18779;DHT22;9518;51.720;14.384;2024-01-10T04:04:41;-12.50;99.90
18779;DHT22;9518;51.720;14.384;2024-01-10T04:07:08;-12.50;99.90
18779;DHT22;9518;51.720;14.384;2024-01-10T04:09:36;-12.50;99.90
18779;DHT22;9518;51.720;14.384;2024-01-10T04:12:04;-12.50;99.90
18779;DHT22;9518;51.720;14.384;2024-01-10T04:14:31;-12.60;99.90
18779;DHT22;9518;51.720;14.384;2024-01-10T04:16:58;-12.70;99.90
18779;DHT22;9518;51.720;14.384;2024-01-10T04:19:25;-12.70;99.90
18779;DHT22;9518;51.720;14.384;2024-01-10T04:21:52;-12.70;99.90
18779;DHT22;9518;51.720;14.384;2024-01-10T04:24:19;-12.60;99.90
18779;DHT22;9518;51.720;14.384;2024-01-10T04:26:47;-12.70;99.90
18779;DHT22;9518;51.720;14.384;2024-01-10T04:29:14;-12.70;99.90
18779;DHT22;9518;51.720;14.384;2024-01-10T04:31:41;-12.70;99.90
18779;DHT22;9518;51.720;14.384;2024-01-10T04:34:08;-12.60;99.90
18779;DHT22;9518;51.720;14.384;2024-01-10T04:36:35;-12.60;99.90
18779;DHT22;9518;51.720;14.384;2024-01-10T04:39:02;-12.70;99.90
18779;DHT22;9518;51.720;14.384;2024-01-10T04:41:32;-12.80;99.90
18779;DHT22;9518;51.720;14.384;2024-01-10T04:44:00;-12.80;99.90
18779;DHT22;9518;51.720;14.384;2024-01-10T04:46:27;-12.80;99.90
18779;DHT22;9518;51.720;14.384;2024-01-10T04:48:54;-12.90;99.90
18779;DHT22;9518;51.720;14.384;2024-01-10T04:51:21;-12.90;99.90
18779;DHT22;9518;51.720;14.384;2024-01-10T04:53:48;-13.00;99.90
18779;DHT22;9518;51.720;14.384;2024-01-10T04:56:15;-12.90;99.90
18779;DHT22;9518;51.720;14.384;2024-01-10T04:58:42;-12.90;99.90
18779;DHT22;9518;51.720;14.384;2024-01-10T05:01:10;-13.00;99.90
18779;DHT22;9518;51.720;14.384;2024-01-10T05:03:37;-13.00;99.90
18779;DHT22;9518;51.720;14.384;2024-01-10T05:06:04;-13.00;99.90
18779;DHT22;9518;51.720;14.384;2024-01-10T05:08:34;-13.00;99.90
18779;DHT22;9518;51.720;14.384;2024-01-10T05:11:01;-13.00;99.90
18779;DHT22;9518;51.720;14.384;2024-01-10T05:13:28;-13.00;99.90
18779;DHT22;9518;51.720;14.384;2024-01-10T05:15:57;-13.10;99.90
18779;DHT22;9518;51.720;14.384;2024-01-10T05:18:25;-13.10;99.90
18779;DHT22;9518;51.720;14.384;2024-01-10T05:20:52;-13.20;99.90
18779;DHT22;9518;51.720;14.384;2024-01-10T05:23:19;-13.10;99.90
18779;DHT22;9518;51.720;14.384;2024-01-10T05:25:46;-12.90;99.90
18779;DHT22;9518;51.720;14.384;2024-01-10T05:28:14;-12.90;99.90
18779;DHT22;9518;51.720;14.384;2024-01-10T05:30:41;-12.90;99.90
18779;DHT22;9518;51.720;14.384;2024-01-10T05:33:08;-13.00;99.90
18779;DHT22;9518;51.720;14.384;2024-01-10T05:35:38;-13.00;99.90
18779;DHT22;9518;51.720;14.384;2024-01-10T05:38:05;-13.10;99.90
18779;DHT22;9518;51.720;14.384;2024-01-10T05:40:32;-13.20;99.90
18779;DHT22;9518;51.720;14.384;2024-01-10T05:42:59;-13.20;99.90
18779;DHT22;9518;51.720;14.384;2024-01-10T05:45:26;-13.30;99.90
18779;DHT22;9518;51.720;14.384;2024-01-10T05:47:54;-13.30;99.90
18779;DHT22;9518;51.720;14.384;2024-01-10T05:50:21;-13.20;99.90
18779;DHT22;9518;51.720;14.384;2024-01-10T05:52:49;-13.30;99.90
18779;DHT22;9518;51.720;14.384;2024-01-10T05:55:16;-13.20;99.90
18779;DHT22;9518;51.720;14.384;2024-01-10T05:57:43;-13.20;99.90
18779;DHT22;9518;51.720;14.384;2024-01-10T06:00:11;-13.20;99.90
18779;DHT22;9518;51.720;14.384;2024-01-10T06:02:41;-13.20;99.90
18779;DHT22;9518;51.720;14.384;2024-01-10T06:05:09;-13.30;99.90
18779;DHT22;9518;51.720;14.384;2024-01-10T06:07:38;-13.40;99.90
18779;DHT22;9518;51.720;14.384;2024-01-10T06:10:08;-13.50;99.90
18779;DHT22;9518;51.720;14.384;2024-01-10T06:12:35;-13.50;99.90
18779;DHT22;9518;51.720;14.384;2024-01-10T06:15:03;-13.50;99.90
18779;DHT22;9518;51.720;14.384;2024-01-10T06:17:32;-13.40;99.90
18779;DHT22;9518;51.720;14.384;2024-01-10T06:19:59;-13.40;99.90
18779;DHT22;9518;51.720;14.384;2024-01-10T06:22:26;-13.30;99.90
18779;DHT22;9518;51.720;14.384;2024-01-10T06:24:53;-13.30;99.90
18779;DHT22;9518;51.720;14.384;2024-01-10T06:27:21;-13.30;99.90
18779;DHT22;9518;51.720;14.384;2024-01-10T06:29:48;-13.40;99.90
18779;DHT22;9518;51.720;14.384;2024-01-10T06:32:15;-13.40;99.90
18779;DHT22;9518;51.720;14.384;2024-01-10T06:34:42;-13.50;99.90
18779;DHT22;9518;51.720;14.384;2024-01-10T06:37:10;-13.50;99.90
18779;DHT22;9518;51.720;14.384;2024-01-10T06:39:37;-13.60;99.90
18779;DHT22;9518;51.720;14.384;2024-01-10T06:42:04;-13.60;99.90
18779;DHT22;9518;51.720;14.384;2024-01-10T06:44:35;-13.50;99.90
18779;DHT22;9518;51.720;14.384;2024-01-10T06:47:02;-13.50;99.90
18779;DHT22;9518;51.720;14.384;2024-01-10T06:49:29;-13.50;99.90
18779;DHT22;9518;51.720;14.384;2024-01-10T06:51:56;-13.60;99.90
18779;DHT22;9518;51.720;14.384;2024-01-10T06:54:24;-13.60;99.90
18779;DHT22;9518;51.720;14.384;2024-01-10T06:56:51;-13.70;99.90
18779;DHT22;9518;51.720;14.384;2024-01-10T06:59:18;-13.70;99.90
18779;DHT22;9518;51.720;14.384;2024-01-10T07:01:51;-13.70;99.90
18779;DHT22;9518;51.720;14.384;2024-01-10T07:04:18;-13.60;99.90
18779;DHT22;9518;51.720;14.384;2024-01-10T07:06:48;-13.60;99.90
18779;DHT22;9518;51.720;14.384;2024-01-10T07:09:14;-13.50;99.90
18779;DHT22;9518;51.720;14.384;2024-01-10T07:11:45;-13.50;99.90
18779;DHT22;9518;51.720;14.384;2024-01-10T07:14:13;-13.50;99.90
18779;DHT22;9518;51.720;14.384;2024-01-10T07:16:40;-13.50;99.90
18779;DHT22;9518;51.720;14.384;2024-01-10T07:19:09;-13.50;99.90
18779;DHT22;9518;51.720;14.384;2024-01-10T07:21:39;-13.50;99.90
18779;DHT22;9518;51.720;14.384;2024-01-10T07:24:06;-13.50;99.90
18779;DHT22;9518;51.720;14.384;2024-01-10T07:26:34;-13.50;99.90
18779;DHT22;9518;51.720;14.384;2024-01-10T07:29:01;-13.40;99.90
18779;DHT22;9518;51.720;14.384;2024-01-10T07:31:28;-13.40;99.90
18779;DHT22;9518;51.720;14.384;2024-01-10T07:33:55;-13.50;99.90
18779;DHT22;9518;51.720;14.384;2024-01-10T07:36:24;-13.40;99.90
18779;DHT22;9518;51.720;14.384;2024-01-10T07:38:52;-13.40;99.90
18779;DHT22;9518;51.720;14.384;2024-01-10T07:41:19;-13.30;99.90
18779;DHT22;9518;51.720;14.384;2024-01-10T07:43:46;-13.20;99.90
18779;DHT22;9518;51.720;14.384;2024-01-10T07:46:13;-13.20;99.90
18779;DHT22;9518;51.720;14.384;2024-01-10T07:48:48;-13.10;99.90
18779;DHT22;9518;51.720;14.384;2024-01-10T07:51:16;-13.10;99.90
18779;DHT22;9518;51.720;14.384;2024-01-10T07:53:45;-13.00;99.90
18779;DHT22;9518;51.720;14.384;2024-01-10T07:56:12;-13.00;99.90
18779;DHT22;9518;51.720;14.384;2024-01-10T07:58:39;-12.90;99.90
18779;DHT22;9518;51.720;14.384;2024-01-10T08:01:06;-12.90;99.90
18779;DHT22;9518;51.720;14.384;2024-01-10T08:03:36;-12.90;99.90
18779;DHT22;9518;51.720;14.384;2024-01-10T08:06:03;-12.70;99.90
18779;DHT22;9518;51.720;14.384;2024-01-10T08:08:31;-12.60;99.90
18779;DHT22;9518;51.720;14.384;2024-01-10T08:11:00;-12.50;99.90
18779;DHT22;9518;51.720;14.384;2024-01-10T08:13:27;-12.40;99.90
18779;DHT22;9518;51.720;14.384;2024-01-10T08:15:54;-12.30;99.90
18779;DHT22;9518;51.720;14.384;2024-01-10T08:18:21;-12.20;99.90
18779;DHT22;9518;51.720;14.384;2024-01-10T08:20:48;-12.00;99.90
18779;DHT22;9518;51.720;14.384;2024-01-10T08:23:15;-11.90;99.90
18779;DHT22;9518;51.720;14.384;2024-01-10T08:25:42;-11.80;99.90
18779;DHT22;9518;51.720;14.384;2024-01-10T08:28:11;-11.80;99.90
18779;DHT22;9518;51.720;14.384;2024-01-10T08:30:39;-11.60;99.90
18779;DHT22;9518;51.720;14.384;2024-01-10T08:33:06;-11.50;99.90
18779;DHT22;9518;51.720;14.384;2024-01-10T08:35:33;-11.30;99.90
18779;DHT22;9518;51.720;14.384;2024-01-10T08:38:00;-11.10;99.90
18779;DHT22;9518;51.720;14.384;2024-01-10T08:40:28;-11.00;99.90
18779;DHT22;9518;51.720;14.384;2024-01-10T08:42:57;-10.90;99.90
18779;DHT22;9518;51.720;14.384;2024-01-10T08:45:25;-10.80;99.90
18779;DHT22;9518;51.720;14.384;2024-01-10T08:47:52;-10.70;99.90
18779;DHT22;9518;51.720;14.384;2024-01-10T08:50:20;-10.60;99.90
18779;DHT22;9518;51.720;14.384;2024-01-10T08:52:47;-10.50;99.90
18779;DHT22;9518;51.720;14.384;2024-01-10T08:55:15;-10.30;99.90
18779;DHT22;9518;51.720;14.384;2024-01-10T08:57:42;-10.20;99.90
18779;DHT22;9518;51.720;14.384;2024-01-10T09:00:09;-10.20;99.90
18779;DHT22;9518;51.720;14.384;2024-01-10T09:02:39;-10.00;99.90
18779;DHT22;9518;51.720;14.384;2024-01-10T09:05:07;-9.90;99.90
18779;DHT22;9518;51.720;14.384;2024-01-10T09:07:36;-9.80;99.90
18779;DHT22;9518;51.720;14.384;2024-01-10T09:10:03;-9.60;99.90
18779;DHT22;9518;51.720;14.384;2024-01-10T09:12:33;-9.50;99.90
18779;DHT22;9518;51.720;14.384;2024-01-10T09:15:00;-9.40;99.90
18779;DHT22;9518;51.720;14.384;2024-01-10T09:17:28;-9.30;99.90
18779;DHT22;9518;51.720;14.384;2024-01-10T09:19:56;-9.20;99.90
18779;DHT22;9518;51.720;14.384;2024-01-10T09:22:23;-9.10;99.90
18779;DHT22;9518;51.720;14.384;2024-01-10T09:24:50;-9.10;99.90
18779;DHT22;9518;51.720;14.384;2024-01-10T09:27:17;-9.10;99.90
18779;DHT22;9518;51.720;14.384;2024-01-10T09:29:44;-9.00;99.90
18779;DHT22;9518;51.720;14.384;2024-01-10T09:32:11;-9.00;99.90
18779;DHT22;9518;51.720;14.384;2024-01-10T09:34:38;-8.80;99.90
18779;DHT22;9518;51.720;14.384;2024-01-10T09:37:06;-8.70;99.90
18779;DHT22;9518;51.720;14.384;2024-01-10T09:39:33;-8.50;99.90
18779;DHT22;9518;51.720;14.384;2024-01-10T09:42:01;-8.50;99.90
18779;DHT22;9518;51.720;14.384;2024-01-10T09:44:28;-8.40;99.90
18779;DHT22;9518;51.720;14.384;2024-01-10T09:46:55;-8.30;99.90
18779;DHT22;9518;51.720;14.384;2024-01-10T09:49:22;-8.20;99.90
18779;DHT22;9518;51.720;14.384;2024-01-10T09:51:53;-8.10;99.90
18779;DHT22;9518;51.720;14.384;2024-01-10T09:54:26;-7.90;99.90
18779;DHT22;9518;51.720;14.384;2024-01-10T09:56:53;-7.80;99.90
18779;DHT22;9518;51.720;14.384;2024-01-10T09:59:21;-7.70;99.90
18779;DHT22;9518;51.720;14.384;2024-01-10T10:01:48;-7.50;99.90
18779;DHT22;9518;51.720;14.384;2024-01-10T10:04:17;-7.50;99.90
18779;DHT22;9518;51.720;14.384;2024-01-10T10:06:44;-7.30;99.90
18779;DHT22;9518;51.720;14.384;2024-01-10T10:09:10;-7.20;99.90
18779;DHT22;9518;51.720;14.384;2024-01-10T10:11:40;-7.00;99.90
18779;DHT22;9518;51.720;14.384;2024-01-10T10:14:14;-6.90;99.90
18779;DHT22;9518;51.720;14.384;2024-01-10T10:16:43;-6.80;99.90
18779;DHT22;9518;51.720;14.384;2024-01-10T10:19:10;-6.70;99.90
18779;DHT22;9518;51.720;14.384;2024-01-10T10:21:39;-6.70;99.90
18779;DHT22;9518;51.720;14.384;2024-01-10T10:24:06;-6.40;99.90
18779;DHT22;9518;51.720;14.384;2024-01-10T10:26:35;-6.40;99.90
18779;DHT22;9518;51.720;14.384;2024-01-10T10:29:03;-6.30;99.90
18779;DHT22;9518;51.720;14.384;2024-01-10T10:31:31;-6.20;99.90
18779;DHT22;9518;51.720;14.384;2024-01-10T10:34:00;-5.80;99.90
18779;DHT22;9518;51.720;14.384;2024-01-10T10:36:31;-5.60;99.90
18779;DHT22;9518;51.720;14.384;2024-01-10T10:39:00;-5.50;99.90
18779;DHT22;9518;51.720;14.384;2024-01-10T10:41:30;-5.40;99.90
18779;DHT22;9518;51.720;14.384;2024-01-10T10:43:58;-5.20;99.90
18779;DHT22;9518;51.720;14.384;2024-01-10T10:46:28;-5.50;99.90
18779;DHT22;9518;51.720;14.384;2024-01-10T10:48:59;-5.80;99.90
18779;DHT22;9518;51.720;14.384;2024-01-10T10:51:33;-6.00;99.90
18779;DHT22;9518;51.720;14.384;2024-01-10T10:54:04;-6.10;99.90
18779;DHT22;9518;51.720;14.384;2024-01-10T10:56:34;-6.10;99.90
18779;DHT22;9518;51.720;14.384;2024-01-10T10:59:03;-6.10;99.90
18779;DHT22;9518;51.720;14.384;2024-01-10T11:01:33;-6.10;99.90
18779;DHT22;9518;51.720;14.384;2024-01-10T11:04:00;-6.10;99.90
18779;DHT22;9518;51.720;14.384;2024-01-10T11:06:28;-6.10;99.90
18779;DHT22;9518;51.720;14.384;2024-01-10T11:08:59;-6.10;99.90
18779;DHT22;9518;51.720;14.384;2024-01-10T11:11:44;-6.20;99.90
18779;DHT22;9518;51.720;14.384;2024-01-10T11:14:22;-6.20;99.90
18779;DHT22;9518;51.720;14.384;2024-01-10T11:17:29;-6.10;99.90
18779;DHT22;9518;51.720;14.384;2024-01-10T11:20:14;-6.10;99.90
18779;DHT22;9518;51.720;14.384;2024-01-10T11:23:03;-6.10;99.90
18779;DHT22;9518;51.720;14.384;2024-01-10T11:25:35;-6.10;99.90
18779;DHT22;9518;51.720;14.384;2024-01-10T11:28:03;-6.00;99.90
18779;DHT22;9518;51.720;14.384;2024-01-10T11:30:33;-6.00;99.90
18779;DHT22;9518;51.720;14.384;2024-01-10T11:33:09;-6.00;99.90
18779;DHT22;9518;51.720;14.384;2024-01-10T11:36:06;-5.90;99.90
18779;DHT22;9518;51.720;14.384;2024-01-10T11:38:39;-5.80;99.90
18779;DHT22;9518;51.720;14.384;2024-01-10T11:41:06;-5.90;99.90
18779;DHT22;9518;51.720;14.384;2024-01-10T11:43:34;-5.90;99.90
18779;DHT22;9518;51.720;14.384;2024-01-10T11:46:02;-5.70;99.90
18779;DHT22;9518;51.720;14.384;2024-01-10T11:48:32;-5.70;99.90
18779;DHT22;9518;51.720;14.384;2024-01-10T11:50:59;-5.70;99.90
18779;DHT22;9518;51.720;14.384;2024-01-10T11:53:40;-5.60;99.90
18779;DHT22;9518;51.720;14.384;2024-01-10T11:56:11;-5.60;99.90
18779;DHT22;9518;51.720;14.384;2024-01-10T11:59:01;-5.50;99.90
18779;DHT22;9518;51.720;14.384;2024-01-10T12:01:29;-5.40;99.90
18779;DHT22;9518;51.720;14.384;2024-01-10T12:03:58;-5.30;99.90
18779;DHT22;9518;51.720;14.384;2024-01-10T12:06:26;-5.20;99.90
18779;DHT22;9518;51.720;14.384;2024-01-10T12:08:53;-5.20;99.90
18779;DHT22;9518;51.720;14.384;2024-01-10T12:11:20;-5.10;99.90
18779;DHT22;9518;51.720;14.384;2024-01-10T12:13:47;-5.10;99.90
18779;DHT22;9518;51.720;14.384;2024-01-10T12:16:14;-5.10;99.90
18779;DHT22;9518;51.720;14.384;2024-01-10T12:18:42;-5.10;99.90
18779;DHT22;9518;51.720;14.384;2024-01-10T12:21:10;-5.00;99.90
18779;DHT22;9518;51.720;14.384;2024-01-10T12:23:38;-4.90;98.70
18779;DHT22;9518;51.720;14.384;2024-01-10T12:26:07;-4.90;99.50
18779;DHT22;9518;51.720;14.384;2024-01-10T12:28:35;-4.90;99.00
18779;DHT22;9518;51.720;14.384;2024-01-10T12:31:03;-4.80;98.70
18779;DHT22;9518;51.720;14.384;2024-01-10T12:33:31;-4.80;98.40
18779;DHT22;9518;51.720;14.384;2024-01-10T12:36:06;-4.80;97.10
18779;DHT22;9518;51.720;14.384;2024-01-10T12:38:35;-4.80;98.20
18779;DHT22;9518;51.720;14.384;2024-01-10T12:41:04;-4.70;97.90
18779;DHT22;9518;51.720;14.384;2024-01-10T12:43:31;-4.70;97.00
18779;DHT22;9518;51.720;14.384;2024-01-10T12:46:05;-4.60;96.80
18779;DHT22;9518;51.720;14.384;2024-01-10T12:48:32;-4.60;97.10
18779;DHT22;9518;51.720;14.384;2024-01-10T12:51:02;-4.60;96.90
18779;DHT22;9518;51.720;14.384;2024-01-10T12:53:35;-4.50;96.90
18779;DHT22;9518;51.720;14.384;2024-01-10T12:56:03;-4.60;97.20
18779;DHT22;9518;51.720;14.384;2024-01-10T12:58:30;-4.50;96.40
18779;DHT22;9518;51.720;14.384;2024-01-10T13:00:57;-4.50;96.00
18779;DHT22;9518;51.720;14.384;2024-01-10T13:03:24;-4.40;96.40
18779;DHT22;9518;51.720;14.384;2024-01-10T13:05:51;-4.40;95.80
18779;DHT22;9518;51.720;14.384;2024-01-10T13:08:18;-4.40;96.70
18779;DHT22;9518;51.720;14.384;2024-01-10T13:10:47;-4.40;96.70
18779;DHT22;9518;51.720;14.384;2024-01-10T13:13:15;-4.40;96.80
18779;DHT22;9518;51.720;14.384;2024-01-10T13:15:43;-4.50;95.80
18779;DHT22;9518;51.720;14.384;2024-01-10T13:18:10;-4.50;96.10
18779;DHT22;9518;51.720;14.384;2024-01-10T13:20:39;-4.50;96.30
18779;DHT22;9518;51.720;14.384;2024-01-10T13:23:06;-4.50;96.30
18779;DHT22;9518;51.720;14.384;2024-01-10T13:25:34;-4.40;97.30
18779;DHT22;9518;51.720;14.384;2024-01-10T13:28:02;-4.40;97.00
18779;DHT22;9518;51.720;14.384;2024-01-10T13:30:30;-4.40;97.10
18779;DHT22;9518;51.720;14.384;2024-01-10T13:32:57;-4.30;96.20
18779;DHT22;9518;51.720;14.384;2024-01-10T13:35:24;-4.30;97.00
18779;DHT22;9518;51.720;14.384;2024-01-10T13:37:51;-4.30;97.10
18779;DHT22;9518;51.720;14.384;2024-01-10T13:40:18;-4.30;96.50
18779;DHT22;9518;51.720;14.384;2024-01-10T13:42:49;-4.30;96.40
18779;DHT22;9518;51.720;14.384;2024-01-10T13:45:18;-4.30;96.70
18779;DHT22;9518;51.720;14.384;2024-01-10T13:47:46;-4.40;96.80
18779;DHT22;9518;51.720;14.384;2024-01-10T13:50:14;-4.40;96.70
18779;DHT22;9518;51.720;14.384;2024-01-10T13:52:41;-4.40;97.10
18779;DHT22;9518;51.720;14.384;2024-01-10T13:55:09;-4.50;97.00
18779;DHT22;9518;51.720;14.384;2024-01-10T13:57:36;-4.50;97.40
18779;DHT22;9518;51.720;14.384;2024-01-10T14:00:05;-4.50;97.80
18779;DHT22;9518;51.720;14.384;2024-01-10T14:02:35;-4.50;98.20
18779;DHT22;9518;51.720;14.384;2024-01-10T14:05:02;-4.30;97.20
18779;DHT22;9518;51.720;14.384;2024-01-10T14:07:31;-4.30;97.60
18779;DHT22;9518;51.720;14.384;2024-01-10T14:09:59;-4.20;97.20
18779;DHT22;9518;51.720;14.384;2024-01-10T14:12:27;-4.20;97.40
18779;DHT22;9518;51.720;14.384;2024-01-10T14:14:54;-4.20;96.90
18779;DHT22;9518;51.720;14.384;2024-01-10T14:17:22;-4.30;96.50
18779;DHT22;9518;51.720;14.384;2024-01-10T14:19:51;-4.30;96.30
18779;DHT22;9518;51.720;14.384;2024-01-10T14:22:18;-4.50;97.00
18779;DHT22;9518;51.720;14.384;2024-01-10T14:24:45;-4.60;97.10
18779;DHT22;9518;51.720;14.384;2024-01-10T14:27:12;-4.70;97.60
18779;DHT22;9518;51.720;14.384;2024-01-10T14:29:39;-4.80;97.80
18779;DHT22;9518;51.720;14.384;2024-01-10T14:32:07;-4.90;98.30
18779;DHT22;9518;51.720;14.384;2024-01-10T14:34:34;-5.00;99.50
18779;DHT22;9518;51.720;14.384;2024-01-10T14:37:02;-5.20;99.90
18779;DHT22;9518;51.720;14.384;2024-01-10T14:39:30;-5.30;99.90
18779;DHT22;9518;51.720;14.384;2024-01-10T14:41:57;-5.30;99.90
18779;DHT22;9518;51.720;14.384;2024-01-10T14:44:24;-5.50;99.90
18779;DHT22;9518;51.720;14.384;2024-01-10T14:46:51;-5.50;99.90
18779;DHT22;9518;51.720;14.384;2024-01-10T14:49:19;-5.40;99.90
18779;DHT22;9518;51.720;14.384;2024-01-10T14:51:46;-5.30;99.90
18779;DHT22;9518;51.720;14.384;2024-01-10T14:54:14;-5.30;99.90
18779;DHT22;9518;51.720;14.384;2024-01-10T14:56:42;-5.20;99.90
18779;DHT22;9518;51.720;14.384;2024-01-10T14:59:10;-5.30;99.90
18779;DHT22;9518;51.720;14.384;2024-01-10T15:01:37;-5.50;99.90
18779;DHT22;9518;51.720;14.384;2024-01-10T15:04:07;-5.80;99.90
18779;DHT22;9518;51.720;14.384;2024-01-10T15:06:34;-6.00;99.90
18779;DHT22;9518;51.720;14.384;2024-01-10T15:09:01;-6.20;99.90
18779;DHT22;9518;51.720;14.384;2024-01-10T15:11:30;-6.40;99.90
18779;DHT22;9518;51.720;14.384;2024-01-10T15:13:57;-6.60;99.90
18779;DHT22;9518;51.720;14.384;2024-01-10T15:16:25;-6.70;99.90
18779;DHT22;9518;51.720;14.384;2024-01-10T15:18:52;-6.70;99.90
18779;DHT22;9518;51.720;14.384;2024-01-10T15:21:19;-6.70;99.90
18779;DHT22;9518;51.720;14.384;2024-01-10T15:23:46;-6.80;99.90
18779;DHT22;9518;51.720;14.384;2024-01-10T15:26:15;-6.90;99.90
18779;DHT22;9518;51.720;14.384;2024-01-10T15:28:44;-6.70;99.90